Terminal Aerodrome Forecast
Issued by NWS

Home | Current Version | Previous Version | Text Only | Print | Product List | Glossary Off
Versions: 1 2 3 4 5 6 7 8 9 10 11 12 13 14 15 16 17 18 19 20 21 22 23 24 25 26 27 28 29 30 31 32 33 34 35 36 37

000
FTUS43 KGRB 191100
TAFRHI
TAF
KRHI 191133Z 1912/2012 18007KT 3SM BR OVC005 WS015/22030KT
     FM191400 19010KT 5SM BR BKN008
     FM191600 18014G25KT P6SM SCT100 BKN200
     FM192200 19011KT P6SM BKN080 BKN150
     FM200200 18006KT 5SM BR SCT012 BKN025
      TEMPO 2005/2008 3SM TSRA OVC012CB
     FM200800 21008KT 3SM BR VCSH SCT004 OVC012
      TEMPO 2009/2012 1SM BR OVC004=

USA.gov is the U.S. government's official web portal to all federal, state and local government web resources and services.